Aérodrome :
LOGIN :

S'inscrire | Disclaimer

   EN    FR    IT 

 










Légende :    VFR   VFR Marginal   IFR   IFR Intensif   IFR Très Intensif
Visi : 
Plafond : 
>= 8 km
>= 3000ft
5 à 8 km
1000 à 3000 ft
1500m à 5 km
500 à 1000 ft
800 à 1500m
200 à 500 ft
< 800m
< 200 ft
Symboles :   Orages  Brouillard  Fortes neiges  Fortes précipitations  Vent > 20 kt
SIGMETs :   Divers  Orages  Givrage  Turbulence  Onde Orograph.  Cendres Volcan.






- Altitude de l'aérodrome : 100 ft


EBDT - Schaffen

DERNIER METAR :
  • 201125Z AUTO 22013G24KT 9999 SCT024/// BKN038/// OVC050/// 10/05 Q1015 WHT

METARs EXPIRÉS :
  • 201110Z AUTO 21012G22KT 9999 -RA SCT024/// BKN034/// OVC050/// 10/05 Q1015 WHT
  • 201055Z AUTO 21013KT 9999 FEW024/// SCT030/// BKN044/// 10/05 Q1015 BLU
  • 201025Z AUTO 20011KT 9999 FEW024/// SCT041/// OVC048/// 09/05 Q1016 BLU
  • 200955Z AUTO 20011KT 9999 FEW020/// BKN041/// OVC049/// 09/05 Q1016 BLU
  • 200949Z AUTO 20010KT 9999 FEW020/// SCT028/// BKN044/// 09/05 Q1016 BLU
  • 200934Z AUTO 20012KT 9999 FEW018/// SCT024/// BKN028/// 09/05 Q1016 WHT
  • 200855Z AUTO 20009KT 9999 OVC039/// 08/05 Q1016 BLU

TAF TAF EBDT
Valide du 20 à 10h jusqu'au 20 à 19h UTC


200841Z 2010/2019 21012G23KT 9999 SCT025 BKN045
PROB40
TEMPO 2010/2014 21010G30KT 5000 -RA -SHRA SCT010 BKN023
PROB30
TEMPO 2017/2019 22020G37KT 4000 SHRA RA SCT010 BKN014TCU



MET'MAP, la Météo Aéronautique d'un coup d'oeil ! - Copyright ORBIFLY Décembre 2007 - Disclaimer

ORBIFLY MET'MAP TEAM :

Programmation & Développement : Alexandra Zaïnal
Sur une idée originale de : Baudouin d'Aumeries
Assistance à la programmation : Marc-Olivier Méhu
Soutien technique & logistique : Manuel Goepfert

Contact : metmap@orbifly.com




SOURCES & CREDITS :

   NOAA